ADDS METAR Data INFO
IDs: Format: Raw Decoded Include TAF

Data at: 0545 UTC 22 Nov 2017

KELA 220535Z AUTO 03012KT 10SM BKN015 BKN021 OVC065 18/17 A3007 RMK AO2 T01820165
KELA 220515Z AUTO 04013KT 10SM BKN013 OVC021 19/17 A3006 RMK AO2 T01850167
KELA 220455Z AUTO 05011G18KT 10SM SCT013 BKN019 OVC055 19/17 A3005 RMK AO2 T01870168
KELA 220435Z AUTO 05010G17KT 10SM BKN015 OVC041 19/17 A3005 RMK AO2 T01900170
KELA 220415Z AUTO 04011KT 10SM OVC013 19/17 A3004 RMK AO2 T01920172
KELA 220355Z AUTO 04011G17KT 10SM BKN015 BKN022 OVC047 19/18 A3002 RMK AO2 T01940175
KELA 220335Z AUTO 04010G14KT 10SM SCT015 SCT022 BKN047 19/18 A3001 RMK AO2 T01940175
KELA 220315Z AUTO 04009KT 10SM CLR 20/17 A2999 RMK AO2 T01950174
KELA 220255Z AUTO 04009KT 10SM CLR 20/17 A2998 RMK AO2 T01970172
KELA 220235Z AUTO 04010KT 10SM CLR 20/17 A2997 RMK AO2 T02010165
KELA 220215Z AUTO 04008KT 10SM CLR 20/16 A2996 RMK AO2 T02030156
KELA 220155Z AUTO 04009G14KT 10SM SCT049 21/15 A2995 RMK AO2 T02090152
KELA 220135Z AUTO 03008KT 10SM SCT049 BKN055 BKN065 21/15 A2994 RMK AO2 T02060150
KELA 220115Z AUTO 02008KT 10SM SCT047 BKN055 BKN065 21/15 A2993 RMK AO2 T02050148
KELA 220055Z AUTO 01006KT 10SM SCT049 SCT055 20/15 A2992 RMK AO2 T02000145
KELA 220035Z AUTO 02004KT 10SM BKN049 21/15 A2991 RMK AO2 T02050145
KELA 220015Z AUTO 35006KT 10SM SCT049 21/14 A2989 RMK AO2 T02110140
KELA 212355Z AUTO 36005KT 10SM CLR 22/14 A2988 RMK AO2 T02210140 10259 20216
KELA 212335Z AUTO 01003KT 10SM CLR 23/14 A2987 RMK AO2 T02260143
KELA 212315Z AUTO 35003KT 10SM CLR 24/15 A2987 RMK AO2 T02370147
KELA 212255Z AUTO 00000KT 10SM CLR 25/14 A2985 RMK AO2 LTG DSNT SE T02460144
KELA 212235Z AUTO 00000KT 10SM CLR 25/14 A2985 RMK AO2 LTG DSNT E T02500144
KELA 212215Z AUTO 00000KT 10SM CLR 25/15 A2984 RMK AO2 LTG DSNT E T02520145
KELA 212155Z AUTO 00000KT 10SM CLR 26/15 A2984 RMK AO2 LTG DSNT SE T02560145
KELA 212135Z AUTO 00000KT 10SM CLR 26/15 A2984 RMK AO2 T02570145
KELA 212115Z AUTO 00000KT 10SM CLR 26/14 A2984 RMK AO2 T02560142
KELA 212055Z AUTO 28005KT 10SM CLR 26/15 A2985 RMK AO2 LTG DSNT SE T02590145
KELA 212035Z AUTO 00000KT 10SM CLR 25/14 A2985 RMK AO2 LTG DSNT SE T02530144
KELA 212015Z AUTO 25004KT 10SM CLR 26/15 A2984 RMK AO2 LTG DSNT SE T02550150
KELA 211955Z AUTO 26003KT 10SM CLR 25/15 A2985 RMK AO2 T02510150
KELA 211935Z AUTO 24003KT 10SM CLR 25/15 A2984 RMK AO2 T02470150
KELA 211915Z AUTO 26007KT 10SM SCT036 25/15 A2985 RMK AO2 T02500150
KELA 211855Z AUTO 25010KT 10SM SCT036 24/15 A2986 RMK AO2 T02430151
KELA 211835Z AUTO 24009G14KT 10SM SCT032 25/15 A2986 RMK AO2 T02510153
KELA 211815Z AUTO 22009G14KT 10SM SCT032 24/16 A2987 RMK AO2 T02420156
KELA 211755Z AUTO 21008KT 10SM CLR 24/16 A2988 RMK AO2 T02370156 10237 20131
KELA 211735Z AUTO 21006KT 10SM CLR 23/16 A2988 RMK AO2 T02260162
KELA 211715Z AUTO 23007KT 10SM CLR 22/16 A2990 RMK AO2 T02180163
KELA 211655Z AUTO 24007KT 10SM CLR 22/16 A2991 RMK AO2 T02150164
KELA 211635Z AUTO 21008KT 10SM CLR 21/17 A2992 RMK AO2 T02140167
KELA 211615Z AUTO 23007KT 10SM CLR 21/17 A2992 RMK AO2 T02080170
KELA 211555Z AUTO 21004KT 10SM CLR 20/17 A2992 RMK AO2 T02030167
KELA 211535Z AUTO 23004KT 10SM CLR 20/17 A2993 RMK AO2 T02020166
KELA 211515Z AUTO 24004KT 10SM CLR 20/16 A2993 RMK AO2 T02010162
KELA 211455Z AUTO 21004KT 10SM CLR 19/16 A2993 RMK AO2 T01920161
KELA 211435Z AUTO 00000KT 10SM CLR 17/15 A2992 RMK AO2 T01720154
KELA 211415Z AUTO 00000KT 10SM CLR 17/15 A2992 RMK AO2 T01650152
KELA 211355Z AUTO 00000KT 10SM CLR 15/14 A2992 RMK AO2 T01470142
KELA 211335Z AUTO 00000KT 10SM CLR 14/14 A2991 RMK AO2 T01420137
KELA 211315Z AUTO 16004KT 10SM CLR 14/13 A2991 RMK AO2 T01350131
KELA 211255Z AUTO 16003KT 10SM CLR 13/13 A2991 RMK AO2 T01330130
KELA 211235Z AUTO 00000KT 10SM SCT017 SCT050 13/13 A2991 RMK AO2 T01330128
KELA 211215Z AUTO 00000KT 10SM SCT036 BKN050 14/13 A2991 RMK AO2 T01370130
KELA 211155Z AUTO 00000KT 10SM OVC036 14/14 A2993 RMK AO2 T01420135 10145 20120
KELA 211135Z AUTO 00000KT 10SM BKN038 OVC055 14/13 A2991 RMK AO2 T01410133
KELA 211115Z AUTO 00000KT 10SM BKN040 OVC050 14/13 A2991 RMK AO2 T01420132
KELA 211055Z AUTO 00000KT 10SM SCT040 OVC050 14/13 A2992 RMK AO2 T01420133
KELA 211035Z AUTO 00000KT 10SM SCT040 OVC050 14/13 A2992 RMK AO2 T01420131
KELA 211015Z AUTO 00000KT 10SM BKN040 OVC050 15/13 A2992 RMK AO2 T01450132
KELA 210955Z AUTO 00000KT 10SM BKN038 OVC050 14/13 A2992 RMK AO2 T01420131
KELA 210935Z AUTO 00000KT 10SM SCT038 OVC050 14/13 A2992 RMK AO2 T01430129
KELA 210915Z AUTO 00000KT 10SM OVC050 14/13 A2993 RMK AO2 T01420128
KELA 210855Z AUTO 00000KT 10SM OVC050 14/13 A2994 RMK AO2 T01410127
KELA 210835Z AUTO 00000KT 10SM OVC050 14/13 A2994 RMK AO2 T01400126
KELA 210815Z AUTO 00000KT 10SM OVC050 14/13 A2994 RMK AO2 T01360125
KELA 210755Z AUTO 00000KT 10SM OVC050 13/12 A2996 RMK AO2 T01310120
KELA 210735Z AUTO 00000KT 10SM OVC055 13/12 A2997 RMK AO2 T01280116
KELA 210715Z AUTO 00000KT 10SM OVC055 12/12 A2997 RMK AO2 T01230115
KELA 210655Z AUTO 00000KT 10SM OVC055 12/11 A2998 RMK AO2 T01230114
KELA 210635Z AUTO 00000KT 10SM OVC055 12/11 A2999 RMK AO2 T01230113
KELA 210615Z AUTO 00000KT 10SM OVC055 12/12 A2999 RMK AO2 T01230115
KELA 210555Z AUTO 00000KT 10SM BKN055 12/11 A3001 RMK AO2 T01210111 10162 20116 402200053
KELA 210535Z AUTO 00000KT 10SM CLR 12/11 A3001 RMK AO2 T01190107
KELA 210515Z AUTO 00000KT 10SM SCT055 12/11 A3001 RMK AO2 T01200107
KELA 210455Z AUTO 15003KT 10SM CLR 12/11 A3001 RMK AO2 T01230110
KELA 210435Z AUTO 14003KT 10SM SCT047 SCT055 13/11 A3002 RMK AO2 T01250110
KELA 210415Z AUTO 15004KT 10SM CLR 13/11 A3002 RMK AO2 T01260110
KELA 210355Z AUTO 16004KT 10SM CLR 13/11 A3003 RMK AO2 T01310112
KELA 210335Z AUTO 16004KT 10SM CLR 13/11 A3003 RMK AO2 T01300111
KELA 210315Z AUTO 15005KT 10SM CLR 13/11 A3003 RMK AO2 T01300107
KELA 210255Z AUTO 15004KT 10SM CLR 13/11 A3004 RMK AO2 T01320107
KELA 210235Z AUTO 15005KT 10SM CLR 13/10 A3004 RMK AO2 T01300103
KELA 210215Z AUTO 15003KT 10SM CLR 14/11 A3004 RMK AO2 T01350105
KELA 210155Z AUTO 15004KT 10SM CLR 14/11 A3004 RMK AO2 T01350105
KELA 210135Z AUTO 15005KT 10SM CLR 14/11 A3005 RMK AO2 T01400105
KELA 210115Z AUTO 15004KT 10SM CLR 14/10 A3005 RMK AO2 T01360102
KELA 210055Z AUTO 16004KT 10SM CLR 14/10 A3005 RMK AO2 T01410103
KELA 210035Z AUTO 15004KT 10SM CLR 15/10 A3005 RMK AO2 T01510103
KELA 210015Z AUTO 15003KT 10SM CLR 16/10 A3005 RMK AO2 T01590102
KELA 202355Z AUTO 00000KT 10SM CLR 16/10 A3005 RMK AO2 T01580101 10220 20158
KELA 202335Z AUTO 17004KT 10SM CLR 17/10 A3004 RMK AO2 T01700102
KELA 202315Z AUTO 17006KT 10SM CLR 19/10 A3005 RMK AO2 T01860103
KELA 202255Z AUTO 18007KT 10SM CLR 20/10 A3004 RMK AO2 T01950101
KELA 202235Z AUTO 17009G14KT 10SM SCT048 20/10 A3004 RMK AO2 T02020101
KELA 202215Z AUTO 17009G14KT 10SM SCT050 20/10 A3004 RMK AO2 T02030099
KELA 202155Z AUTO 17010KT 10SM SCT050 21/10 A3004 RMK AO2 T02100098
KELA 202135Z AUTO 18012G16KT 10SM BKN050 22/10 A3004 RMK AO2 T02170097
KELA 202115Z AUTO 20009G14KT 170V230 10SM SCT050 22/09 A3005 RMK AO2 T02170092
KELA 202055Z AUTO 20008G15KT 10SM SCT050 22/09 A3006 RMK AO2 T02170090
KELA 202035Z AUTO 16009KT 10SM SCT050 22/09 A3007 RMK AO2 T02180092
KELA 202015Z AUTO 14005KT 10SM CLR 21/09 A3008 RMK AO2 T02120087
KELA 201955Z AUTO 18009G14KT 10SM CLR 21/09 A3009 RMK AO2 T02100085
KELA 201935Z AUTO 17005KT 10SM CLR 21/09 A3010 RMK AO2 T02060085
KELA 201915Z AUTO 22005KT 10SM CLR 21/08 A3012 RMK AO2 T02070084
KELA 201855Z AUTO 19007KT 10SM CLR 21/08 A3013 RMK AO2 LTG DSNT SE T02050083
KELA 201835Z AUTO 19005KT 10SM CLR 20/08 A3015 RMK AO2 T02010080
KELA 201815Z AUTO 15008KT 10SM CLR 20/08 A3017 RMK AO2 T02040079
KELA 201755Z AUTO 17008KT 10SM CLR 20/08 A3019 RMK AO2 T01980075 10198 20055